Time;durP1;ratioP1;P1;durP2;ratioP2;P2;SDS_P1;SDS_P2;PMS_P1;PMS_P2;Temp;Humidity;BMP_temperature;BMP_pressure;BME280_temperature;BME280_humidity;BME280_pressure;Samples;Min_cycle;Max_cycle;Signal;HPM_P1;HPM_P2
2024/01/13 00:01:04;;;;;;;;;;;3.10;99.90;;;;;;5074570;28;20282;-32
2024/01/13 00:03:31;;;;;;;;;;;3.10;99.90;;;;;;5091446;28;19963;-32
2024/01/13 00:05:59;;;;;;;;;;;3.00;99.90;;;;;;5072865;28;19940;-33
2024/01/13 00:08:25;;;;;;;;;;;3.00;99.90;;;;;;5090650;28;20326;-34
2024/01/13 00:10:52;;;;;;;;;;;3.10;99.90;;;;;;5091724;28;20640;-33
2024/01/13 00:13:19;;;;;;;;;;;3.00;99.90;;;;;;5073403;28;19970;-34
2024/01/13 00:15:45;;;;;;;;;;;3.10;99.90;;;;;;5074126;28;19924;-33
2024/01/13 00:18:13;;;;;;;;;;;3.00;99.90;;;;;;5073850;28;19978;-33
2024/01/13 00:20:40;;;;;;;;;;;3.10;99.90;;;;;;5066211;28;19932;-32
2024/01/13 00:23:08;;;;;;;;;;;3.10;99.90;;;;;;5090294;28;20329;-33
2024/01/13 00:25:35;;;;;;;;;;;3.00;99.90;;;;;;5073706;28;19924;-33
2024/01/13 00:28:02;;;;;;;;;;;3.00;99.90;;;;;;5091916;28;20280;-33
2024/01/13 00:30:28;;;;;;;;;;;3.00;99.90;;;;;;5073496;28;19959;-34
2024/01/13 00:32:55;;;;;;;;;;;3.00;99.90;;;;;;5074185;28;19924;-32
2024/01/13 00:35:21;;;;;;;;;;;3.10;99.90;;;;;;5073831;28;19967;-32
2024/01/13 00:37:48;;;;;;;;;;;3.00;99.90;;;;;;5073514;28;20456;-33
2024/01/13 00:40:16;;;;;;;;;;;3.10;99.90;;;;;;5073834;28;19973;-33
2024/01/13 00:42:43;;;;;;;;;;;3.00;99.90;;;;;;5073856;28;19932;-32
2024/01/13 00:45:09;;;;;;;;;;;3.10;99.90;;;;;;5073993;28;19924;-32
2024/01/13 00:47:36;;;;;;;;;;;3.10;99.90;;;;;;5073718;28;19961;-33
2024/01/13 00:50:03;;;;;;;;;;;3.10;99.90;;;;;;5073228;28;19967;-33
2024/01/13 00:52:29;;;;;;;;;;;3.10;99.90;;;;;;5073416;28;19928;-33
2024/01/13 00:54:56;;;;;;;;;;;3.10;99.90;;;;;;5089283;28;19958;-33
2024/01/13 00:57:24;;;;;;;;;;;3.10;99.90;;;;;;5095468;28;19928;-32
2024/01/13 00:59:51;;;;;;;;;;;3.10;99.90;;;;;;5095786;28;19940;-32
2024/01/13 01:02:17;;;;;;;;;;;3.10;99.90;;;;;;5095527;28;20362;-32
2024/01/13 01:04:44;;;;;;;;;;;3.10;99.90;;;;;;5077358;28;19924;-33
2024/01/13 01:07:10;;;;;;;;;;;3.10;99.90;;;;;;5077716;28;19973;-32
2024/01/13 01:09:37;;;;;;;;;;;3.20;99.90;;;;;;5073832;28;19924;-33
2024/01/13 01:12:04;;;;;;;;;;;3.10;99.90;;;;;;5092576;28;20275;-33
2024/01/13 01:14:32;;;;;;;;;;;3.10;99.90;;;;;;5095157;28;19924;-33
2024/01/13 01:16:59;;;;;;;;;;;3.10;99.90;;;;;;5076323;28;19969;-33
2024/01/13 01:19:25;;;;;;;;;;;3.10;99.90;;;;;;5075252;28;20364;-32
2024/01/13 01:21:52;;;;;;;;;;;3.10;99.90;;;;;;5075275;28;20360;-32
2024/01/13 01:24:19;;;;;;;;;;;3.10;99.90;;;;;;5059657;28;19936;-33
2024/01/13 01:26:45;;;;;;;;;;;3.10;99.90;;;;;;5076116;28;19924;-34
2024/01/13 01:29:12;;;;;;;;;;;3.10;99.90;;;;;;5093227;28;19924;-33
2024/01/13 01:31:40;;;;;;;;;;;3.10;99.90;;;;;;5070865;28;19985;-33
2024/01/13 01:34:06;;;;;;;;;;;3.10;99.90;;;;;;5094446;28;19946;-33
2024/01/13 01:36:33;;;;;;;;;;;3.10;99.90;;;;;;5076276;28;20016;-33
2024/01/13 01:39:03;;;;;;;;;;;3.10;99.90;;;;;;5094731;28;19928;-34
2024/01/13 01:41:29;;;;;;;;;;;3.10;99.90;;;;;;5075172;28;19927;-33
2024/01/13 01:43:56;;;;;;;;;;;3.10;99.90;;;;;;5076746;28;20376;-33
2024/01/13 01:46:23;;;;;;;;;;;3.10;99.90;;;;;;5076730;28;20024;-33
2024/01/13 01:48:53;;;;;;;;;;;3.20;99.90;;;;;;5093543;28;19969;-32
2024/01/13 01:51:19;;;;;;;;;;;3.10;99.90;;;;;;5075969;28;19989;-33
2024/01/13 01:53:46;;;;;;;;;;;3.20;99.90;;;;;;5094414;28;19924;-33
2024/01/13 01:56:14;;;;;;;;;;;3.20;99.90;;;;;;5093178;28;20438;-33
2024/01/13 01:58:41;;;;;;;;;;;3.20;99.90;;;;;;5093675;28;19978;-32
2024/01/13 02:01:08;;;;;;;;;;;3.20;99.90;;;;;;5092919;28;20363;-32
2024/01/13 02:03:35;;;;;;;;;;;3.20;99.90;;;;;;5076103;28;20019;-33
2024/01/13 02:06:03;;;;;;;;;;;3.20;99.90;;;;;;5075669;28;19925;-34
2024/01/13 02:08:29;;;;;;;;;;;3.20;99.90;;;;;;5093699;28;19928;-33
2024/01/13 02:11:01;;;;;;;;;;;3.20;99.90;;;;;;5093484;28;19924;-34
2024/01/13 02:13:28;;;;;;;;;;;3.20;99.90;;;;;;5091644;28;19924;-33
2024/01/13 02:15:55;;;;;;;;;;;3.20;99.90;;;;;;5093267;28;19986;-33
2024/01/13 02:18:21;;;;;;;;;;;3.20;99.90;;;;;;5075768;28;19932;-32
2024/01/13 02:20:48;;;;;;;;;;;3.20;99.90;;;;;;5091435;28;19932;-33
2024/01/13 02:23:16;;;;;;;;;;;3.20;99.90;;;;;;5072836;28;20436;-33
2024/01/13 02:25:42;;;;;;;;;;;3.20;99.90;;;;;;5075660;28;19928;-34
2024/01/13 02:28:10;;;;;;;;;;;3.20;99.90;;;;;;5064651;28;20326;-32
2024/01/13 02:30:36;;;;;;;;;;;3.20;99.90;;;;;;5072539;28;20235;-32
2024/01/13 02:33:03;;;;;;;;;;;3.20;99.90;;;;;;5076434;28;19924;-32
2024/01/13 02:35:30;;;;;;;;;;;3.20;99.90;;;;;;5093306;28;19950;-32
2024/01/13 02:37:56;;;;;;;;;;;3.20;99.90;;;;;;5076047;28;20333;-32
2024/01/13 02:40:24;;;;;;;;;;;3.20;99.90;;;;;;5075595;28;19924;-34
2024/01/13 02:42:51;;;;;;;;;;;3.20;99.90;;;;;;5074883;28;20015;-32
2024/01/13 02:45:18;;;;;;;;;;;3.20;99.90;;;;;;5074880;28;19932;-33
2024/01/13 02:47:45;;;;;;;;;;;3.20;99.90;;;;;;5092477;28;20294;-33
2024/01/13 02:50:11;;;;;;;;;;;3.20;99.90;;;;;;5074171;28;19923;-33
2024/01/13 02:52:40;;;;;;;;;;;3.20;99.90;;;;;;5075145;28;19924;-33
2024/01/13 02:55:06;;;;;;;;;;;3.20;99.90;;;;;;5074732;28;19930;-34
2024/01/13 02:57:34;;;;;;;;;;;3.20;99.90;;;;;;5075425;28;19928;-33
2024/01/13 03:00:03;;;;;;;;;;;3.20;99.90;;;;;;5071783;28;19970;-33
2024/01/13 03:02:30;;;;;;;;;;;3.20;99.90;;;;;;5073447;28;19931;-32
2024/01/13 03:04:56;;;;;;;;;;;3.20;99.90;;;;;;5092156;28;19963;-33
2024/01/13 03:07:23;;;;;;;;;;;3.20;99.90;;;;;;5073980;28;19967;-32
2024/01/13 03:09:49;;;;;;;;;;;3.20;99.90;;;;;;5092955;28;19970;-34
2024/01/13 03:12:16;;;;;;;;;;;3.20;99.90;;;;;;5073134;28;19924;-33
2024/01/13 03:14:44;;;;;;;;;;;3.20;99.90;;;;;;5073882;28;19973;-33
2024/01/13 03:17:11;;;;;;;;;;;3.20;99.90;;;;;;5073051;28;19974;-34
2024/01/13 03:19:37;;;;;;;;;;;3.20;99.90;;;;;;5075042;28;19924;-33
2024/01/13 03:22:04;;;;;;;;;;;3.20;99.90;;;;;;5091592;28;20040;-35
2024/01/13 03:24:31;;;;;;;;;;;3.20;99.90;;;;;;5087734;28;20041;-34
2024/01/13 03:26:57;;;;;;;;;;;3.20;99.90;;;;;;5073502;28;20337;-33
2024/01/13 03:29:24;;;;;;;;;;;3.20;99.90;;;;;;5079627;28;19965;-33
2024/01/13 03:31:52;;;;;;;;;;;3.20;99.90;;;;;;5091900;28;19924;-33
2024/01/13 03:34:19;;;;;;;;;;;3.20;99.90;;;;;;5074390;28;19963;-32
2024/01/13 03:36:45;;;;;;;;;;;3.20;99.90;;;;;;5072540;28;19928;-35
2024/01/13 03:39:12;;;;;;;;;;;3.30;99.90;;;;;;5073842;28;19925;-33
2024/01/13 03:41:39;;;;;;;;;;;3.20;99.90;;;;;;5073183;28;20349;-32
2024/01/13 03:44:05;;;;;;;;;;;3.20;99.90;;;;;;5075488;28;19934;-32
2024/01/13 03:46:33;;;;;;;;;;;3.30;99.90;;;;;;5073517;28;19932;-33
2024/01/13 03:49:01;;;;;;;;;;;3.30;99.90;;;;;;5091282;28;19925;-33
2024/01/13 03:51:28;;;;;;;;;;;3.20;99.90;;;;;;5074045;28;19924;-32
2024/01/13 03:53:54;;;;;;;;;;;3.20;99.90;;;;;;5074326;28;20227;-32
2024/01/13 03:56:21;;;;;;;;;;;3.20;99.90;;;;;;5096467;28;20322;-33
2024/01/13 03:58:47;;;;;;;;;;;3.20;99.90;;;;;;5071437;28;19970;-33
2024/01/13 04:01:15;;;;;;;;;;;3.30;99.90;;;;;;5074224;28;19924;-32
2024/01/13 04:03:42;;;;;;;;;;;3.20;99.90;;;;;;5091583;28;20306;-32
2024/01/13 04:06:10;;;;;;;;;;;3.20;99.90;;;;;;5071424;28;19977;-33
2024/01/13 04:08:37;;;;;;;;;;;3.20;99.90;;;;;;5074777;28;20379;-32
2024/01/13 04:11:07;;;;;;;;;;;3.20;99.90;;;;;;5078096;28;19924;-33
2024/01/13 04:13:33;;;;;;;;;;;3.20;99.90;;;;;;5074357;28;20351;-33
2024/01/13 04:16:00;;;;;;;;;;;3.20;99.90;;;;;;5073231;28;19973;-32
2024/01/13 04:18:27;;;;;;;;;;;3.30;99.90;;;;;;5074301;28;19928;-32
2024/01/13 04:20:53;;;;;;;;;;;3.30;99.90;;;;;;5072059;28;19927;-32
2024/01/13 04:23:21;;;;;;;;;;;3.20;99.90;;;;;;5074148;28;19932;-33
2024/01/13 04:25:48;;;;;;;;;;;3.20;99.90;;;;;;5079370;28;19924;-33
2024/01/13 04:28:14;;;;;;;;;;;3.20;99.90;;;;;;5093273;28;20400;-32
2024/01/13 04:30:41;;;;;;;;;;;3.20;99.90;;;;;;5073958;28;19924;-32
2024/01/13 04:33:08;;;;;;;;;;;3.30;99.90;;;;;;5086351;28;19932;-32
2024/01/13 04:35:34;;;;;;;;;;;3.20;99.90;;;;;;5092444;28;20357;-32
2024/01/13 04:38:02;;;;;;;;;;;3.20;99.90;;;;;;5074134;28;20384;-32
2024/01/13 04:40:36;;;;;;;;;;;3.20;99.90;;;;;;5072940;28;19924;-34
2024/01/13 04:43:03;;;;;;;;;;;3.20;99.90;;;;;;5072419;28;19966;-32
2024/01/13 04:45:29;;;;;;;;;;;3.20;99.90;;;;;;5072627;28;19924;-34
2024/01/13 04:47:56;;;;;;;;;;;3.20;99.90;;;;;;5073473;28;20423;-33
2024/01/13 04:50:22;;;;;;;;;;;3.20;99.90;;;;;;5074719;28;19977;-33
2024/01/13 04:52:49;;;;;;;;;;;3.20;99.90;;;;;;5072801;28;19974;-32
2024/01/13 04:55:16;;;;;;;;;;;3.20;99.90;;;;;;5072125;28;20408;-33
2024/01/13 04:57:44;;;;;;;;;;;3.20;99.90;;;;;;5073088;28;20003;-33
2024/01/13 05:00:11;;;;;;;;;;;3.20;99.90;;;;;;5086202;28;20384;-32
2024/01/13 05:02:38;;;;;;;;;;;3.20;99.90;;;;;;5070963;28;19924;-33
2024/01/13 05:05:05;;;;;;;;;;;3.20;99.90;;;;;;5073540;28;19969;-32
2024/01/13 05:07:31;;;;;;;;;;;3.20;99.90;;;;;;5072249;28;19981;-33
2024/01/13 05:09:58;;;;;;;;;;;3.20;99.90;;;;;;5072902;28;19974;-32
2024/01/13 05:12:24;;;;;;;;;;;3.20;99.90;;;;;;5072274;28;19931;-33
2024/01/13 05:14:52;;;;;;;;;;;3.20;99.90;;;;;;5072817;28;19924;-31
2024/01/13 05:17:19;;;;;;;;;;;3.20;99.90;;;;;;5106697;28;19924;-32
2024/01/13 05:19:46;;;;;;;;;;;3.20;99.90;;;;;;5073015;28;19927;-32
2024/01/13 05:22:12;;;;;;;;;;;3.20;99.90;;;;;;5066378;28;19948;-32
2024/01/13 05:24:39;;;;;;;;;;;3.20;99.90;;;;;;5072449;28;19924;-33
2024/01/13 05:27:06;;;;;;;;;;;3.20;99.90;;;;;;5072945;28;19974;-33
2024/01/13 05:29:32;;;;;;;;;;;3.30;99.90;;;;;;5075195;28;19924;-32
2024/01/13 05:32:00;;;;;;;;;;;3.20;99.90;;;;;;5076662;28;20409;-32
2024/01/13 05:34:27;;;;;;;;;;;3.20;99.90;;;;;;5073307;28;20419;-31
2024/01/13 05:36:53;;;;;;;;;;;3.20;99.90;;;;;;5072998;28;19924;-32
2024/01/13 05:39:20;;;;;;;;;;;3.20;99.90;;;;;;5072765;28;19924;-32
2024/01/13 05:41:47;;;;;;;;;;;3.20;99.90;;;;;;5077415;28;19928;-31
2024/01/13 05:44:13;;;;;;;;;;;3.20;99.90;;;;;;5094278;28;19967;-32
2024/01/13 05:46:40;;;;;;;;;;;3.20;99.90;;;;;;5081608;28;19969;-32
2024/01/13 05:49:08;;;;;;;;;;;3.20;99.90;;;;;;5076581;28;20427;-33
2024/01/13 05:51:36;;;;;;;;;;;3.20;99.90;;;;;;5075810;28;20011;-33
2024/01/13 05:54:03;;;;;;;;;;;3.10;99.90;;;;;;5077067;28;19924;-31
2024/01/13 05:56:30;;;;;;;;;;;3.20;99.90;;;;;;5094270;28;20342;-32
2024/01/13 05:58:56;;;;;;;;;;;3.20;99.90;;;;;;5076594;28;19977;-34
2024/01/13 06:01:24;;;;;;;;;;;3.10;99.90;;;;;;5084080;28;19971;-34
2024/01/13 06:03:50;;;;;;;;;;;3.10;99.90;;;;;;5093722;28;19935;-33
2024/01/13 06:06:18;;;;;;;;;;;3.20;99.90;;;;;;5095717;28;19924;-32
2024/01/13 06:08:45;;;;;;;;;;;3.10;99.90;;;;;;5075508;28;19946;-32
2024/01/13 06:11:12;;;;;;;;;;;3.10;99.90;;;;;;5098430;28;19971;-32
2024/01/13 06:13:39;;;;;;;;;;;3.20;99.90;;;;;;5075628;28;19924;-32
2024/01/13 06:16:06;;;;;;;;;;;3.10;99.90;;;;;;5075495;28;19924;-30
2024/01/13 06:18:32;;;;;;;;;;;3.10;99.90;;;;;;5094889;28;19924;-31
2024/01/13 06:21:01;;;;;;;;;;;3.20;99.90;;;;;;5093562;28;19981;-33
2024/01/13 06:23:29;;;;;;;;;;;3.20;99.90;;;;;;5075129;28;19928;-32
2024/01/13 06:25:55;;;;;;;;;;;3.20;99.90;;;;;;5072536;28;19928;-32
2024/01/13 06:28:22;;;;;;;;;;;3.20;99.90;;;;;;5075121;28;19928;-32
2024/01/13 06:30:49;;;;;;;;;;;3.20;99.90;;;;;;5076035;28;19973;-32
2024/01/13 06:33:14;;;;;;;;;;;3.20;99.90;;;;;;5075366;28;19977;-31
2024/01/13 06:35:41;;;;;;;;;;;3.20;99.90;;;;;;5093414;28;20338;-32
2024/01/13 06:38:08;;;;;;;;;;;3.20;99.90;;;;;;5093273;28;19977;-30
2024/01/13 06:40:36;;;;;;;;;;;3.20;99.90;;;;;;5075389;28;19974;-32
2024/01/13 06:43:02;;;;;;;;;;;3.20;99.90;;;;;;5075255;28;20222;-32
2024/01/13 06:45:29;;;;;;;;;;;3.20;99.90;;;;;;5093131;28;19928;-32
2024/01/13 06:47:55;;;;;;;;;;;3.20;99.90;;;;;;5075821;28;20331;-32
2024/01/13 06:50:22;;;;;;;;;;;3.20;99.90;;;;;;5074194;28;19977;-32
2024/01/13 06:52:49;;;;;;;;;;;3.20;99.90;;;;;;5075084;28;19981;-33
2024/01/13 06:55:16;;;;;;;;;;;3.20;99.90;;;;;;5097475;28;19927;-32
2024/01/13 06:57:44;;;;;;;;;;;3.20;99.90;;;;;;5093486;28;19924;-32
2024/01/13 07:00:11;;;;;;;;;;;3.20;99.90;;;;;;5074436;28;19925;-32
2024/01/13 07:02:38;;;;;;;;;;;3.20;99.90;;;;;;5074838;28;19932;-32
2024/01/13 07:05:05;;;;;;;;;;;3.20;99.90;;;;;;5075422;28;20326;-32
2024/01/13 07:07:32;;;;;;;;;;;3.20;99.90;;;;;;5092003;28;20405;-33
2024/01/13 07:09:58;;;;;;;;;;;3.20;99.90;;;;;;5094324;28;19924;-32
2024/01/13 07:12:25;;;;;;;;;;;3.20;99.90;;;;;;5075560;28;19924;-33
2024/01/13 07:14:53;;;;;;;;;;;3.20;99.90;;;;;;5073904;28;20022;-33
2024/01/13 07:17:20;;;;;;;;;;;3.20;99.90;;;;;;5091531;28;19978;-34
2024/01/13 07:19:46;;;;;;;;;;;3.30;99.90;;;;;;5074362;28;19974;-32
2024/01/13 07:22:13;;;;;;;;;;;3.20;99.90;;;;;;5104289;28;20296;-32
2024/01/13 07:24:40;;;;;;;;;;;3.30;99.90;;;;;;5074634;28;19924;-33
2024/01/13 07:27:06;;;;;;;;;;;3.30;99.90;;;;;;5073996;28;19927;-32
2024/01/13 07:29:33;;;;;;;;;;;3.30;99.90;;;;;;5091652;28;20354;-33
2024/01/13 07:32:01;;;;;;;;;;;3.30;99.90;;;;;;5092282;28;20299;-33
2024/01/13 07:34:27;;;;;;;;;;;3.30;99.90;;;;;;5092931;28;20012;-34
2024/01/13 07:36:55;;;;;;;;;;;3.30;99.90;;;;;;5092440;28;20350;-32
2024/01/13 07:39:22;;;;;;;;;;;3.30;99.90;;;;;;5073017;28;19932;-34
2024/01/13 07:41:50;;;;;;;;;;;3.30;99.90;;;;;;5073721;28;20307;-32
2024/01/13 07:44:17;;;;;;;;;;;3.30;99.90;;;;;;5073393;28;19977;-31
2024/01/13 07:46:44;;;;;;;;;;;3.30;99.90;;;;;;5090453;28;19928;-33
2024/01/13 07:49:12;;;;;;;;;;;3.30;99.90;;;;;;5069142;28;20311;-33
2024/01/13 07:51:39;;;;;;;;;;;3.30;99.90;;;;;;5070713;28;19971;-32
2024/01/13 07:54:06;;;;;;;;;;;3.30;99.90;;;;;;5071828;28;19924;-32
2024/01/13 07:56:32;;;;;;;;;;;3.30;99.90;;;;;;5073466;28;20089;-33
2024/01/13 07:59:00;;;;;;;;;;;3.30;99.90;;;;;;5072943;28;19978;-33
2024/01/13 08:01:26;;;;;;;;;;;3.30;99.90;;;;;;5072827;28;19924;-33
2024/01/13 08:03:53;;;;;;;;;;;3.30;99.90;;;;;;5072535;28;20359;-32
2024/01/13 08:06:22;;;;;;;;;;;3.30;99.90;;;;;;5091245;28;20000;-32
2024/01/13 08:08:48;;;;;;;;;;;3.30;99.90;;;;;;5091286;28;20019;-33
2024/01/13 08:11:15;;;;;;;;;;;3.30;99.90;;;;;;5090953;28;19977;-32
2024/01/13 08:13:42;;;;;;;;;;;3.30;99.90;;;;;;5072260;28;19928;-32
2024/01/13 08:16:09;;;;;;;;;;;3.30;99.90;;;;;;5088599;28;20376;-33
2024/01/13 08:18:36;;;;;;;;;;;3.40;99.90;;;;;;5091881;28;19930;-31
2024/01/13 08:21:03;;;;;;;;;;;3.40;99.90;;;;;;5091478;28;19932;-31
2024/01/13 08:23:31;;;;;;;;;;;3.30;99.90;;;;;;5072968;28;20054;-32
2024/01/13 08:25:57;;;;;;;;;;;3.30;99.90;;;;;;5073554;28;19978;-33
2024/01/13 08:28:24;;;;;;;;;;;3.40;99.90;;;;;;5090621;28;20345;-32
2024/01/13 08:30:51;;;;;;;;;;;3.40;99.90;;;;;;5073554;28;19973;-32
2024/01/13 08:33:17;;;;;;;;;;;3.40;99.90;;;;;;5072142;28;19973;-33
2024/01/13 08:35:44;;;;;;;;;;;3.40;99.90;;;;;;5073464;28;19978;-32
2024/01/13 08:38:12;;;;;;;;;;;3.50;99.90;;;;;;5074273;28;20350;-32
2024/01/13 08:40:40;;;;;;;;;;;3.40;99.90;;;;;;5072953;28;19928;-31
2024/01/13 08:43:08;;;;;;;;;;;3.40;99.90;;;;;;5090973;28;20341;-32
2024/01/13 08:45:35;;;;;;;;;;;3.50;99.90;;;;;;5091074;28;20312;-33
2024/01/13 08:48:01;;;;;;;;;;;3.50;99.90;;;;;;5081695;28;19928;-32
2024/01/13 08:50:28;;;;;;;;;;;3.50;99.90;;;;;;5091659;28;19928;-31
2024/01/13 08:52:55;;;;;;;;;;;3.50;99.90;;;;;;5073931;28;19973;-31
2024/01/13 08:55:21;;;;;;;;;;;3.50;99.90;;;;;;5090021;28;20307;-32
2024/01/13 08:57:49;;;;;;;;;;;3.50;99.90;;;;;;5090750;28;19966;-32
2024/01/13 09:00:16;;;;;;;;;;;3.50;99.90;;;;;;5091085;28;19928;-32
2024/01/13 09:02:43;;;;;;;;;;;3.50;99.90;;;;;;5072520;28;19977;-33
2024/01/13 09:05:09;;;;;;;;;;;3.60;99.90;;;;;;5069556;28;19952;-32
2024/01/13 09:07:36;;;;;;;;;;;3.60;99.90;;;;;;5090678;28;19924;-33
2024/01/13 09:10:03;;;;;;;;;;;3.60;99.90;;;;;;5091040;28;19924;-34
2024/01/13 09:12:30;;;;;;;;;;;3.60;99.90;;;;;;5078147;28;19924;-32
2024/01/13 09:14:58;;;;;;;;;;;3.60;99.90;;;;;;5074019;28;19964;-33
2024/01/13 09:17:24;;;;;;;;;;;3.60;99.90;;;;;;5076197;28;19928;-33
2024/01/13 09:19:51;;;;;;;;;;;3.60;99.90;;;;;;5094755;28;19924;-32
2024/01/13 09:22:18;;;;;;;;;;;3.60;99.90;;;;;;5076972;28;19976;-32
2024/01/13 09:24:44;;;;;;;;;;;3.60;99.90;;;;;;5077739;28;19930;-33
2024/01/13 09:27:11;;;;;;;;;;;3.60;99.90;;;;;;5077940;28;19923;-32
2024/01/13 09:29:38;;;;;;;;;;;3.60;99.90;;;;;;5094334;28;19928;-33
2024/01/13 09:32:07;;;;;;;;;;;3.60;99.90;;;;;;5075629;28;19985;-32
2024/01/13 09:34:33;;;;;;;;;;;3.60;99.90;;;;;;5076530;28;19983;-32
2024/01/13 09:37:00;;;;;;;;;;;3.60;99.90;;;;;;5076047;28;20376;-33
2024/01/13 09:39:26;;;;;;;;;;;3.60;99.90;;;;;;5081711;28;19932;-32
2024/01/13 09:41:53;;;;;;;;;;;3.60;99.90;;;;;;5076443;28;19977;-33
2024/01/13 09:44:21;;;;;;;;;;;3.60;99.90;;;;;;5094906;28;19931;-33
2024/01/13 09:46:47;;;;;;;;;;;3.70;99.90;;;;;;5091809;28;20516;-32
2024/01/13 09:49:17;;;;;;;;;;;3.60;99.90;;;;;;5073727;28;20380;-32
2024/01/13 09:51:44;;;;;;;;;;;3.60;99.90;;;;;;5075456;28;20290;-32
2024/01/13 09:54:12;;;;;;;;;;;3.60;99.90;;;;;;5076536;28;19970;-33
2024/01/13 09:56:40;;;;;;;;;;;3.60;99.90;;;;;;5075756;28;20536;-33
2024/01/13 09:59:07;;;;;;;;;;;3.60;99.90;;;;;;5075214;28;20379;-33
2024/01/13 10:01:34;;;;;;;;;;;3.70;99.90;;;;;;5075528;28;19971;-33
2024/01/13 10:04:01;;;;;;;;;;;3.70;99.90;;;;;;5075816;28;19924;-34
2024/01/13 10:06:29;;;;;;;;;;;3.70;99.90;;;;;;5074643;28;19972;-35
2024/01/13 10:08:55;;;;;;;;;;;3.70;99.90;;;;;;5072356;28;19969;-33
2024/01/13 10:11:22;;;;;;;;;;;3.70;99.90;;;;;;5075105;28;20341;-33
2024/01/13 10:13:58;;;;;;;;;;;3.70;99.90;;;;;;5074559;28;19978;-33
2024/01/13 10:16:26;;;;;;;;;;;3.70;99.90;;;;;;5097971;28;20000;-33
2024/01/13 10:18:53;;;;;;;;;;;3.70;99.90;;;;;;5075857;28;19932;-33
2024/01/13 10:21:19;;;;;;;;;;;3.70;99.90;;;;;;5094707;28;20365;-33
2024/01/13 10:23:47;;;;;;;;;;;3.80;99.90;;;;;;5075798;28;19924;-32
2024/01/13 10:26:14;;;;;;;;;;;3.80;99.90;;;;;;5074951;28;19928;-32
2024/01/13 10:28:41;;;;;;;;;;;3.70;99.90;;;;;;5075697;28;20441;-33
2024/01/13 10:31:07;;;;;;;;;;;3.80;99.90;;;;;;5075901;28;19924;-32
2024/01/13 10:33:34;;;;;;;;;;;3.80;99.90;;;;;;5093256;28;19924;-32
2024/01/13 10:36:01;;;;;;;;;;;3.80;99.90;;;;;;5075687;28;20008;-34
2024/01/13 10:38:27;;;;;;;;;;;3.80;99.90;;;;;;5074819;28;19928;-33
2024/01/13 10:40:55;;;;;;;;;;;3.80;99.90;;;;;;5075873;28;19924;-33
2024/01/13 10:43:22;;;;;;;;;;;3.80;99.90;;;;;;5074808;28;19924;-34
2024/01/13 10:45:51;;;;;;;;;;;3.80;99.90;;;;;;5104721;28;20257;-34
2024/01/13 10:48:21;;;;;;;;;;;3.80;99.90;;;;;;5093934;28;20291;-32
2024/01/13 10:50:47;;;;;;;;;;;3.80;99.90;;;;;;5075345;28;19923;-33
2024/01/13 10:53:16;;;;;;;;;;;3.80;99.90;;;;;;5071686;28;20383;-33
2024/01/13 10:55:43;;;;;;;;;;;3.80;99.90;;;;;;5090177;28;19928;-34
2024/01/13 10:58:11;;;;;;;;;;;3.80;99.90;;;;;;5072151;28;19932;-34
2024/01/13 11:00:37;;;;;;;;;;;3.80;99.90;;;;;;5077053;28;20378;-33
2024/01/13 11:03:04;;;;;;;;;;;3.80;99.90;;;;;;5090549;28;19924;-32
2024/01/13 11:05:31;;;;;;;;;;;3.90;99.90;;;;;;5073584;28;19931;-32
2024/01/13 11:08:02;;;;;;;;;;;3.90;99.90;;;;;;5074437;28;19932;-33
2024/01/13 11:10:29;;;;;;;;;;;3.90;99.90;;;;;;5074377;28;19930;-34
2024/01/13 11:12:57;;;;;;;;;;;3.90;99.90;;;;;;5076261;28;20402;-33
2024/01/13 11:15:26;;;;;;;;;;;4.00;99.90;;;;;;5085717;28;19924;-33
2024/01/13 11:17:53;;;;;;;;;;;3.90;99.90;;;;;;5080657;28;19982;-33
2024/01/13 11:20:19;;;;;;;;;;;3.90;99.90;;;;;;5074139;28;20472;-33
2024/01/13 11:22:56;;;;;;;;;;;4.00;99.90;;;;;;5074617;28;19970;-34
2024/01/13 11:25:24;;;;;;;;;;;3.90;99.90;;;;;;5093779;28;20345;-32
2024/01/13 11:27:53;;;;;;;;;;;4.00;99.90;;;;;;5074668;28;19924;-33
2024/01/13 11:30:30;;;;;;;;;;;3.90;99.90;;;;;;5074000;28;19932;-33
2024/01/13 11:32:56;;;;;;;;;;;4.00;99.90;;;;;;5073195;28;20391;-33
2024/01/13 11:35:25;;;;;;;;;;;4.00;99.90;;;;;;5090217;28;21369;-34
2024/01/13 11:37:54;;;;;;;;;;;4.00;99.90;;;;;;5090322;28;19928;-33
2024/01/13 11:40:21;;;;;;;;;;;4.00;99.90;;;;;;5070200;28;19932;-33
2024/01/13 11:42:48;;;;;;;;;;;4.00;99.90;;;;;;5083029;28;19933;-33
2024/01/13 11:45:14;;;;;;;;;;;4.00;99.90;;;;;;5067010;28;19982;-34
2024/01/13 11:47:42;;;;;;;;;;;4.00;99.90;;;;;;5089957;28;19967;-33
2024/01/13 11:50:25;;;;;;;;;;;4.00;99.90;;;;;;5083565;28;19928;-33
2024/01/13 11:55:56;;;;;;;;;;;4.10;99.90;;;;;;5132656;27;20272;-32
2024/01/13 11:58:23;;;;;;;;;;;4.10;99.90;;;;;;5111150;27;19931;-34
2024/01/13 12:00:50;;;;;;;;;;;4.10;99.90;;;;;;5114974;27;20043;-33
2024/01/13 12:03:18;;;;;;;;;;;4.10;99.90;;;;;;5132266;27;20348;-32
2024/01/13 12:05:44;;;;;;;;;;;4.20;99.90;;;;;;5107964;27;20042;-33
2024/01/13 12:08:11;;;;;;;;;;;4.20;99.90;;;;;;5097825;27;19927;-33
2024/01/13 12:10:41;;;;;;;;;;;4.20;99.90;;;;;;5110767;27;19927;-34
2024/01/13 12:13:14;;;;;;;;;;;4.20;99.90;;;;;;5105703;27;19977;-33
2024/01/13 12:15:45;;;;;;;;;;;4.20;99.90;;;;;;5124638;27;20533;-33
2024/01/13 12:18:20;;;;;;;;;;;4.30;99.90;;;;;;5110836;28;19931;-33
2024/01/13 12:20:47;;;;;;;;;;;4.30;99.90;;;;;;5112009;27;20027;-33
2024/01/13 12:23:14;;;;;;;;;;;4.30;99.90;;;;;;5110809;27;20021;-32
2024/01/13 12:25:41;;;;;;;;;;;4.30;99.90;;;;;;5128821;27;20006;-32
2024/01/13 12:28:07;;;;;;;;;;;4.30;99.90;;;;;;5107387;27;19931;-33
2024/01/13 12:30:35;;;;;;;;;;;4.40;99.90;;;;;;5129781;27;19968;-34
2024/01/13 12:33:01;;;;;;;;;;;4.40;99.90;;;;;;5112367;27;19927;-33
2024/01/13 12:35:29;;;;;;;;;;;4.30;99.90;;;;;;5107314;28;19968;-34
2024/01/13 12:37:56;;;;;;;;;;;4.40;99.90;;;;;;5114342;28;19968;-33
2024/01/13 12:40:23;;;;;;;;;;;4.40;99.90;;;;;;5130930;28;19923;-33
2024/01/13 12:42:49;;;;;;;;;;;4.40;99.90;;;;;;5111851;28;20288;-33
2024/01/13 12:45:17;;;;;;;;;;;4.40;99.90;;;;;;5129737;28;19969;-34
2024/01/13 12:47:44;;;;;;;;;;;4.40;99.90;;;;;;5112930;28;19927;-34
2024/01/13 12:50:11;;;;;;;;;;;4.40;99.90;;;;;;5129919;27;20282;-33
2024/01/13 12:52:40;;;;;;;;;;;4.40;99.90;;;;;;5133008;27;19927;-33
2024/01/13 12:55:07;;;;;;;;;;;4.40;99.90;;;;;;5133120;27;20678;-34
2024/01/13 12:57:34;;;;;;;;;;;4.40;99.90;;;;;;5113984;27;19972;-33
2024/01/13 13:00:01;;;;;;;;;;;4.40;99.90;;;;;;5105925;27;20430;-33
2024/01/13 13:02:28;;;;;;;;;;;4.30;99.90;;;;;;5117380;27;19928;-33
2024/01/13 13:04:54;;;;;;;;;;;4.40;99.90;;;;;;5130954;27;19931;-31
2024/01/13 13:07:24;;;;;;;;;;;4.40;99.90;;;;;;5114139;27;19931;-33
2024/01/13 13:09:52;;;;;;;;;;;4.40;99.90;;;;;;5115167;27;20367;-33
2024/01/13 13:12:21;;;;;;;;;;;4.40;99.90;;;;;;5116302;27;20363;-33
2024/01/13 13:14:48;;;;;;;;;;;4.30;99.90;;;;;;5118675;27;19972;-31
2024/01/13 13:17:14;;;;;;;;;;;4.30;99.90;;;;;;5118237;27;19932;-31
2024/01/13 13:19:41;;;;;;;;;;;4.40;99.90;;;;;;5112146;27;19924;-31
2024/01/13 13:22:08;;;;;;;;;;;4.30;99.90;;;;;;5127264;27;20386;-31
2024/01/13 13:24:35;;;;;;;;;;;4.30;99.90;;;;;;5123149;27;19929;-32
2024/01/13 13:27:03;;;;;;;;;;;4.30;99.90;;;;;;5135502;27;20003;-32
2024/01/13 13:29:30;;;;;;;;;;;4.30;99.90;;;;;;5117504;27;19967;-32
2024/01/13 13:31:57;;;;;;;;;;;4.30;99.90;;;;;;5117008;27;19976;-33
2024/01/13 13:34:24;;;;;;;;;;;4.30;99.90;;;;;;5131771;27;20014;-31
2024/01/13 13:36:50;;;;;;;;;;;4.30;99.90;;;;;;5124423;27;19976;-32
2024/01/13 13:39:17;;;;;;;;;;;4.30;99.90;;;;;;5110575;27;19927;-31
2024/01/13 13:41:44;;;;;;;;;;;4.20;99.90;;;;;;5107877;27;21490;-34
2024/01/13 13:44:12;;;;;;;;;;;4.30;99.90;;;;;;5130696;27;19952;-32
2024/01/13 13:46:38;;;;;;;;;;;4.30;99.90;;;;;;5106578;27;19968;-31
2024/01/13 13:49:05;;;;;;;;;;;4.30;99.90;;;;;;5120431;27;19928;-31
2024/01/13 13:51:32;;;;;;;;;;;4.20;99.90;;;;;;5107664;27;19923;-33
2024/01/13 13:53:59;;;;;;;;;;;4.30;99.90;;;;;;5126479;27;19931;-34
2024/01/13 13:56:25;;;;;;;;;;;4.20;99.90;;;;;;5127163;27;19931;-32
2024/01/13 13:58:52;;;;;;;;;;;4.20;99.90;;;;;;5126501;27;20794;-31
2024/01/13 14:01:20;;;;;;;;;;;4.30;99.90;;;;;;5108503;27;19968;-33
2024/01/13 14:03:47;;;;;;;;;;;4.30;99.90;;;;;;5109389;27;19932;-34
2024/01/13 14:06:13;;;;;;;;;;;4.30;99.90;;;;;;5130652;27;19930;-32
2024/01/13 14:08:40;;;;;;;;;;;4.30;99.90;;;;;;5127020;27;19969;-33
2024/01/13 14:11:07;;;;;;;;;;;4.30;99.90;;;;;;5110591;27;19930;-33
2024/01/13 14:13:34;;;;;;;;;;;4.30;99.90;;;;;;5110017;27;20326;-34
2024/01/13 14:16:00;;;;;;;;;;;4.30;99.90;;;;;;5106277;27;19962;-32
2024/01/13 14:18:33;;;;;;;;;;;4.40;99.90;;;;;;5100397;27;20027;-33
2024/01/13 14:20:59;;;;;;;;;;;4.40;99.90;;;;;;5104999;27;19928;-33
2024/01/13 14:23:26;;;;;;;;;;;4.40;99.90;;;;;;5104968;27;19962;-34
2024/01/13 14:25:53;;;;;;;;;;;4.40;99.90;;;;;;5105520;27;19923;-33
2024/01/13 14:28:19;;;;;;;;;;;4.40;99.90;;;;;;5103375;27;20011;-32
2024/01/13 14:30:46;;;;;;;;;;;4.50;99.90;;;;;;5108909;27;19931;-32
2024/01/13 14:33:13;;;;;;;;;;;4.40;99.90;;;;;;5109684;27;19976;-33